Time;durP1;ratioP1;P1;durP2;ratioP2;P2;SDS_P1;SDS_P2;PMS_P1;PMS_P2;Temp;Humidity;BMP_temperature;BMP_pressure;BME280_temperature;BME280_humidity;BME280_pressure;Samples;Min_cycle;Max_cycle;Signal;HPM_P1;HPM_P2
2021/10/25 00:01:07;;;;;;;7.90;5.23;;;0.40;99.90;0.10;101306.00;;;;4938343;28;117578;-67
2021/10/25 00:03:33;;;;;;;10.40;4.97;;;0.50;99.90;0.10;101305.00;;;;4937828;28;110267;-67
2021/10/25 00:05:59;;;;;;;7.13;5.10;;;0.40;99.90;0.10;101301.00;;;;4938070;28;88157;-67
2021/10/25 00:08:24;;;;;;;7.07;4.93;;;0.40;99.90;0.10;101302.00;;;;4938122;28;105173;-66
2021/10/25 00:10:50;;;;;;;10.50;6.33;;;0.50;99.90;0.00;101303.00;;;;4939345;28;89641;-67
2021/10/25 00:13:16;;;;;;;5.20;3.60;;;0.40;99.90;0.00;101298.00;;;;4938962;28;87769;-66
2021/10/25 00:15:42;;;;;;;6.27;4.70;;;0.40;99.90;0.00;101290.00;;;;4938958;28;108249;-66
2021/10/25 00:18:07;;;;;;;5.70;4.60;;;0.40;99.90;0.00;101289.00;;;;4936427;28;117418;-66
2021/10/25 00:20:35;;;;;;;6.43;4.77;;;0.40;99.90;0.00;101297.00;;;;4919518;28;109009;-67
2021/10/25 00:23:03;;;;;;;5.47;4.40;;;0.30;99.90;0.00;101281.00;;;;4946921;28;87940;-66
2021/10/25 00:25:29;;;;;;;6.30;4.20;;;0.40;99.90;0.00;101292.00;;;;4939191;28;87058;-67
2021/10/25 00:27:55;;;;;;;7.17;4.33;;;0.30;99.90;0.00;101291.00;;;;4938979;28;88064;-67
2021/10/25 00:30:21;;;;;;;7.17;4.13;;;0.30;99.90;0.00;101293.00;;;;4938835;28;104184;-67
2021/10/25 00:32:47;;;;;;;5.90;4.37;;;0.30;99.90;0.00;101290.00;;;;4938740;28;88495;-66
2021/10/25 00:35:13;;;;;;;7.37;4.27;;;0.40;99.90;0.00;101286.00;;;;4938999;28;87657;-67
2021/10/25 00:37:39;;;;;;;8.63;4.33;;;0.30;99.90;0.00;101288.00;;;;4938840;28;87726;-67
2021/10/25 00:40:06;;;;;;;5.40;4.50;;;0.40;99.90;0.00;101292.00;;;;4939210;28;87984;-67
2021/10/25 00:42:33;;;;;;;6.17;3.57;;;0.30;99.90;0.00;101295.00;;;;4953511;28;88020;-67
2021/10/25 00:44:59;;;;;;;5.03;3.70;;;0.30;99.90;0.00;101285.00;;;;4938793;28;87835;-67
2021/10/25 00:47:25;;;;;;;6.53;3.10;;;0.30;99.90;0.00;101295.00;;;;4936723;28;87698;-67
2021/10/25 00:49:51;;;;;;;7.13;4.40;;;0.40;99.90;0.00;101287.00;;;;4938285;28;105691;-67
2021/10/25 00:52:19;;;;;;;8.83;3.77;;;-0.30;99.90;0.00;101280.00;;;;4937006;28;100739;-67
2021/10/25 00:54:45;;;;;;;10.27;4.53;;;0.30;99.90;0.00;101282.00;;;;4938997;28;87695;-67
2021/10/25 00:57:12;;;;;;;5.10;3.77;;;0.70;99.90;0.00;101277.00;;;;4948722;28;100789;-68
2021/10/25 00:59:37;;;;;;;6.40;3.00;;;1.10;99.90;-0.10;101281.00;;;;4953300;28;87807;-67
2021/10/25 01:02:03;;;;;;;5.60;3.57;;;0.30;99.90;-0.10;101280.00;;;;4927452;28;100323;-67
2021/10/25 01:04:30;;;;;;;8.33;3.40;;;0.30;99.90;-0.10;101282.00;;;;4938612;28;87550;-67
2021/10/25 01:06:55;;;;;;;4.47;2.80;;;1.10;99.90;-0.10;101282.00;;;;4953407;28;88005;-67
2021/10/25 01:09:22;;;;;;;7.47;3.70;;;0.30;99.90;-0.10;101277.00;;;;4937983;28;87957;-67
2021/10/25 01:11:49;;;;;;;4.77;4.27;;;0.20;99.90;-0.10;101264.00;;;;4938511;28;87957;-68
2021/10/25 01:14:16;;;;;;;5.20;2.93;;;0.20;99.90;-0.20;101275.00;;;;4937961;28;86867;-67
2021/10/25 01:16:42;;;;;;;5.43;3.50;;;0.20;99.90;-0.20;101279.00;;;;4937799;28;89035;-67
2021/10/25 01:19:08;;;;;;;4.93;3.47;;;0.10;99.90;-0.20;101290.00;;;;4937627;28;101049;-67
2021/10/25 01:21:34;;;;;;;4.13;3.00;;;0.10;99.90;-0.20;101279.00;;;;4942416;28;92801;-67
2021/10/25 01:24:00;;;;;;;3.63;2.53;;;0.60;99.90;-0.30;101278.00;;;;4936331;28;108817;-67
2021/10/25 01:26:26;;;;;;;5.67;2.97;;;0.10;99.90;-0.30;101275.00;;;;4938172;28;88049;-68
2021/10/25 01:28:53;;;;;;;4.47;2.83;;;0.10;99.90;-0.30;101255.00;;;;4936479;28;117856;-67
2021/10/25 01:31:21;;;;;;;4.93;3.10;;;0.00;99.90;-0.30;101267.00;;;;4937859;28;87860;-67
2021/10/25 01:33:50;;;;;;;4.10;2.50;;;0.00;99.90;-0.30;101270.00;;;;4937669;28;87627;-68
2021/10/25 01:36:16;;;;;;;7.00;3.13;;;0.00;99.90;-0.30;101267.00;;;;4937236;28;105857;-67
2021/10/25 01:38:42;;;;;;;6.73;3.93;;;-0.10;99.90;-0.40;101261.00;;;;4954795;28;88057;-67
2021/10/25 01:41:08;;;;;;;2.97;2.67;;;0.00;99.90;-0.40;101262.00;;;;4937270;28;94033;-67
2021/10/25 01:43:36;;;;;;;5.07;3.10;;;0.00;99.90;-0.40;101260.00;;;;4937495;28;87652;-67
2021/10/25 01:46:04;;;;;;;5.87;2.97;;;0.00;99.90;-0.40;101262.00;;;;4951733;28;94306;-67
2021/10/25 01:48:29;;;;;;;3.77;2.77;;;0.00;99.90;-0.40;101255.00;;;;4936413;28;89702;-67
2021/10/25 01:50:55;;;;;;;4.60;3.07;;;0.00;99.90;-0.40;101244.00;;;;4936986;28;110390;-67
2021/10/25 01:53:21;;;;;;;5.73;3.23;;;0.00;99.90;-0.50;101248.00;;;;4936141;28;107880;-67
2021/10/25 01:55:54;;;;;;;4.23;3.00;;;-0.10;99.90;-0.50;101260.00;;;;4936849;28;104806;-67
2021/10/25 01:58:20;;;;;;;3.73;2.77;;;-0.20;99.90;-0.50;101256.00;;;;4936671;28;88201;-67
2021/10/25 02:00:45;;;;;;;4.30;3.13;;;-0.10;99.90;-0.50;101260.00;;;;4936658;28;110116;-67
2021/10/25 02:03:11;;;;;;;4.23;2.67;;;-0.10;99.90;-0.50;101242.00;;;;4936842;28;108874;-67
2021/10/25 02:05:37;;;;;;;2.67;2.20;;;-0.20;99.90;-0.60;101236.00;;;;4937268;28;99269;-67
2021/10/25 02:08:03;;;;;;;4.20;3.17;;;0.50;99.90;-0.60;101238.00;;;;4936957;28;88340;-67
2021/10/25 02:10:29;;;;;;;6.33;3.60;;;-0.20;99.90;-0.60;101247.00;;;;4936507;28;88808;-67
2021/10/25 02:12:55;;;;;;;7.47;4.07;;;-0.20;99.90;-0.60;101245.00;;;;4938170;28;88365;-67
2021/10/25 02:15:21;;;;;;;3.37;2.80;;;-0.30;99.90;-0.70;101246.00;;;;4936520;28;88499;-67
2021/10/25 02:17:47;;;;;;;5.03;3.37;;;-0.30;99.90;-0.70;101241.00;;;;4936880;28;117455;-67
2021/10/25 02:20:13;;;;;;;3.30;2.57;;;0.50;99.90;-0.70;101244.00;;;;4937039;28;88077;-66
2021/10/25 02:22:39;;;;;;;3.90;2.50;;;-0.30;99.90;-0.70;101238.00;;;;4937127;28;109062;-66
2021/10/25 02:25:05;;;;;;;2.93;2.60;;;-0.40;99.90;-0.70;101231.00;;;;4932056;28;118255;-66
2021/10/25 02:27:31;;;;;;;3.67;2.10;;;-0.40;99.90;-0.70;101233.00;;;;4936782;28;104181;-66
2021/10/25 02:29:57;;;;;;;4.93;2.83;;;-0.40;99.90;-0.70;101224.00;;;;4936921;28;87650;-66
2021/10/25 02:32:23;;;;;;;4.13;2.70;;;-0.30;99.90;-0.70;101225.00;;;;4937480;28;93275;-67
2021/10/25 02:34:49;;;;;;;3.90;2.67;;;-0.30;99.90;-0.70;101221.00;;;;4935988;28;98599;-65
2021/10/25 02:37:16;;;;;;;3.90;2.93;;;0.40;99.90;-0.70;101214.00;;;;4935445;28;119610;-66
2021/10/25 02:39:43;;;;;;;3.43;2.63;;;-0.40;99.90;-0.70;101216.00;;;;4936658;28;88288;-66
2021/10/25 02:42:10;;;;;;;3.83;2.33;;;-0.30;99.90;-0.70;101216.00;;;;4938897;28;93043;-65
2021/10/25 02:44:35;;;;;;;3.77;2.33;;;-0.40;99.90;-0.70;101206.00;;;;4942585;28;88769;-65
2021/10/25 02:47:02;;;;;;;4.17;2.50;;;-0.40;99.90;-0.70;101213.00;;;;4936064;28;116778;-66
2021/10/25 02:49:28;;;;;;;5.70;2.83;;;0.10;99.90;-0.70;101210.00;;;;4936956;28;87641;-65
2021/10/25 02:51:53;;;;;;;6.93;4.10;;;-0.40;99.90;-0.70;101226.00;;;;4936621;28;86768;-65
2021/10/25 02:54:20;;;;;;;5.40;3.07;;;-0.30;99.90;-0.70;101214.00;;;;4935258;28;117362;-65
2021/10/25 02:56:46;;;;;;;4.30;3.27;;;-0.30;99.90;-0.70;101209.00;;;;4936785;28;88693;-65
2021/10/25 02:59:12;;;;;;;5.87;3.33;;;-0.40;99.90;-0.80;101206.00;;;;4934980;28;96026;-66
2021/10/25 03:01:39;;;;;;;4.17;3.37;;;-0.10;99.90;-0.80;101206.00;;;;4936516;28;87687;-65
2021/10/25 03:04:06;;;;;;;4.93;3.03;;;-0.50;99.90;-0.80;101207.00;;;;4935631;28;89250;-65
2021/10/25 03:06:33;;;;;;;4.40;3.07;;;-0.40;99.90;-0.80;101205.00;;;;4936265;28;88039;-68
2021/10/25 03:08:59;;;;;;;5.73;3.33;;;-0.40;99.90;-0.80;101215.00;;;;4936207;28;87628;-65
2021/10/25 03:11:25;;;;;;;2.93;2.63;;;-0.50;99.90;-0.80;101205.00;;;;4940667;28;87764;-65
2021/10/25 03:13:53;;;;;;;4.53;2.73;;;-0.10;99.90;-0.80;101205.00;;;;4934475;28;91315;-65
2021/10/25 03:16:20;;;;;;;12.87;7.93;;;-0.50;99.90;-0.90;101208.00;;;;4936687;28;87572;-66
2021/10/25 03:18:47;;;;;;;8.23;5.13;;;-0.50;99.90;-0.90;101200.00;;;;4936495;28;87824;-65
2021/10/25 03:21:19;;;;;;;8.43;4.40;;;-0.40;99.90;-0.90;101194.00;;;;4943599;28;87894;-64
2021/10/25 03:23:47;;;;;;;7.43;4.80;;;-0.50;99.90;-0.90;101200.00;;;;4935759;28;88501;-65
2021/10/25 03:26:13;;;;;;;6.93;5.13;;;0.00;99.90;-0.90;101198.00;;;;4936169;28;88790;-65
2021/10/25 03:28:38;;;;;;;11.47;6.93;;;-0.40;99.90;-0.90;101198.00;;;;4936337;28;87726;-66
2021/10/25 03:31:06;;;;;;;11.63;7.20;;;-0.50;99.90;-0.90;101211.00;;;;4935216;28;87782;-66
2021/10/25 03:33:35;;;;;;;8.80;7.07;;;-0.50;99.90;-0.90;101194.00;;;;4935092;28;88925;-66
2021/10/25 03:36:07;;;;;;;11.10;6.37;;;-0.60;99.90;-0.90;101194.00;;;;4935233;28;88057;-66
2021/10/25 03:38:36;;;;;;;9.57;6.20;;;-0.60;99.90;-1.00;101206.00;;;;4936245;28;87982;-66
2021/10/25 03:41:04;;;;;;;10.60;5.50;;;-0.60;99.90;-1.00;101200.00;;;;4936586;28;86806;-66
2021/10/25 03:43:34;;;;;;;9.90;6.20;;;-0.70;99.90;-1.00;101182.00;;;;4935989;28;88562;-66
2021/10/25 03:51:43;;;;;;;11.40;6.87;;;-0.60;99.90;-1.00;101199.00;;;;4936945;28;87728;-66
2021/10/25 04:28:41;;;;;;;10.67;6.17;;;-0.70;99.90;-1.10;101171.00;;;;4929558;28;99712;-65
2021/10/25 04:31:07;;;;;;;8.03;6.60;;;-0.70;99.90;-1.10;101164.00;;;;4932448;28;88157;-67
2021/10/25 04:33:33;;;;;;;9.97;6.17;;;-0.80;99.90;-1.10;101170.00;;;;4940105;28;87126;-66
2021/10/25 04:35:59;;;;;;;11.17;4.90;;;-0.80;99.90;-1.10;101171.00;;;;4934843;28;91728;-65
2021/10/25 04:38:24;;;;;;;6.93;5.30;;;-0.40;99.90;-1.10;101171.00;;;;4943717;28;117775;-65
2021/10/25 04:40:50;;;;;;;5.70;4.03;;;-0.80;99.90;-1.10;101168.00;;;;4934020;28;110877;-65
2021/10/25 04:43:17;;;;;;;6.77;4.10;;;0.00;99.90;-1.10;101169.00;;;;4959288;28;88393;-65
2021/10/25 04:45:44;;;;;;;7.77;5.13;;;-0.80;99.90;-1.10;101172.00;;;;4925838;28;87772;-66
2021/10/25 04:48:10;;;;;;;5.87;4.00;;;-0.70;99.90;-1.10;101164.00;;;;4934801;28;88839;-65
2021/10/25 04:50:36;;;;;;;4.33;3.93;;;-0.70;99.90;-1.10;101160.00;;;;4935024;28;112325;-65
2021/10/25 04:53:02;;;;;;;6.80;4.17;;;0.10;99.90;-1.10;101166.00;;;;4934892;28;87624;-65
2021/10/25 04:55:29;;;;;;;10.63;4.47;;;-0.70;99.90;-1.10;101163.00;;;;4933615;28;87718;-65
2021/10/25 04:57:55;;;;;;;10.73;5.83;;;-0.80;99.90;-1.10;101162.00;;;;4935252;28;104493;-65
2021/10/25 05:00:21;;;;;;;7.37;5.63;;;-0.80;99.90;-1.10;101158.00;;;;4934319;28;109163;-65
2021/10/25 05:02:46;;;;;;;8.17;4.60;;;-0.80;99.90;-1.10;101162.00;;;;4939387;28;88151;-67
2021/10/25 05:05:12;;;;;;;8.23;4.80;;;-0.80;99.90;-1.10;101159.00;;;;4937311;28;118278;-66
2021/10/25 05:07:38;;;;;;;5.87;4.33;;;-0.70;99.90;-1.10;101163.00;;;;4937182;28;119172;-67
2021/10/25 05:10:05;;;;;;;6.50;4.80;;;-0.80;99.90;-1.10;101161.00;;;;4951804;28;110487;-65
2021/10/25 05:12:31;;;;;;;8.67;5.03;;;-0.80;99.90;-1.10;101164.00;;;;4938376;28;87730;-65
2021/10/25 05:14:57;;;;;;;4.23;3.73;;;-0.70;99.90;-1.00;101155.00;;;;4937133;28;97441;-66
2021/10/25 05:17:24;;;;;;;5.40;3.93;;;-0.80;99.90;-0.90;101158.00;;;;4952857;28;87811;-65
2021/10/25 05:19:51;;;;;;;5.20;3.60;;;-0.60;99.90;-0.70;101151.00;;;;4934520;28;89564;-66
2021/10/25 05:22:18;;;;;;;4.87;3.63;;;-0.50;99.90;-0.60;101158.00;;;;4944867;28;87180;-67
2021/10/25 05:24:45;;;;;;;5.37;3.57;;;-0.30;99.90;-0.40;101149.00;;;;4937246;28;88861;-68
2021/10/25 05:27:11;;;;;;;6.90;4.37;;;-0.20;99.90;-0.10;101162.00;;;;4937652;28;87480;-68
2021/10/25 05:29:38;;;;;;;5.70;3.57;;;0.00;99.90;0.20;101156.00;;;;4937698;28;88736;-68
2021/10/25 05:32:05;;;;;;;8.03;4.57;;;0.40;99.90;0.40;101164.00;;;;4949841;28;87721;-67
2021/10/25 05:34:32;;;;;;;6.27;3.73;;;0.60;99.90;0.60;101152.00;;;;4934033;28;88919;-67
2021/10/25 05:36:58;;;;;;;7.63;3.73;;;0.70;99.90;0.80;101154.00;;;;4934542;28;88009;-66
2021/10/25 05:39:24;;;;;;;7.37;4.13;;;1.00;99.90;1.10;101150.00;;;;4949566;28;87849;-68
2021/10/25 05:41:50;;;;;;;3.83;3.17;;;1.20;99.90;1.30;101150.00;;;;4933861;28;109885;-67
2021/10/25 05:44:16;;;;;;;5.47;3.60;;;1.50;99.90;1.60;101162.00;;;;4940270;28;117864;-67
2021/10/25 05:46:41;;;;;;;3.20;2.90;;;1.70;99.90;1.90;101168.00;;;;4942000;28;87596;-67
2021/10/25 05:49:07;;;;;;;4.53;3.13;;;1.90;99.90;2.10;101160.00;;;;4933698;28;109255;-67
2021/10/25 05:51:33;;;;;;;6.93;2.30;;;2.40;99.90;2.20;101158.00;;;;4934674;28;87962;-66
2021/10/25 05:54:03;;;;;;;4.00;2.73;;;2.30;99.90;2.40;101168.00;;;;4932915;28;90105;-67
2021/10/25 05:56:29;;;;;;;3.90;2.63;;;2.60;99.90;2.50;101159.00;;;;4934191;28;89927;-67
2021/10/25 05:58:55;;;;;;;3.20;2.23;;;3.50;99.90;2.60;101173.00;;;;4934129;28;88232;-67
2021/10/25 06:01:27;;;;;;;2.20;1.97;;;2.70;99.90;2.70;101169.00;;;;4933811;28;87639;-65
2021/10/25 06:03:59;;;;;;;6.13;3.30;;;2.80;99.90;2.80;101167.00;;;;4932836;28;89007;-67
2021/10/25 06:06:24;;;;;;;7.63;3.30;;;3.00;99.90;2.90;101167.00;;;;4935063;28;88225;-65
2021/10/25 06:08:51;;;;;;;3.17;2.80;;;3.00;99.90;3.00;101178.00;;;;4933135;28;110588;-65
2021/10/25 06:11:17;;;;;;;3.83;2.37;;;3.20;99.90;3.10;101177.00;;;;4942688;28;87266;-66
2021/10/25 06:13:44;;;;;;;2.87;2.13;;;3.20;99.90;3.20;101175.00;;;;4932900;28;118629;-66
2021/10/25 06:16:18;;;;;;;3.13;2.33;;;3.40;99.90;3.30;101183.00;;;;4933399;28;88941;-66
2021/10/25 06:18:44;;;;;;;2.63;2.37;;;3.50;99.90;3.40;101172.00;;;;4933871;28;88659;-66
2021/10/25 06:21:10;;;;;;;4.47;2.50;;;3.50;99.90;3.50;101167.00;;;;4951145;28;87633;-66
2021/10/25 06:23:38;;;;;;;3.60;2.60;;;4.20;99.90;3.70;101167.00;;;;4936292;28;87839;-66
2021/10/25 06:26:05;;;;;;;2.17;1.93;;;3.70;99.90;3.80;101170.00;;;;4933220;28;88697;-65
2021/10/25 06:28:32;;;;;;;3.83;2.97;;;4.40;99.90;4.00;101174.00;;;;4933826;28;87593;-65
2021/10/25 06:31:03;;;;;;;3.27;2.33;;;4.10;99.90;4.10;101177.00;;;;4935471;28;88049;-65
2021/10/25 06:33:29;;;;;;;4.17;2.57;;;4.70;99.90;4.30;101179.00;;;;4938467;28;88687;-64
2021/10/25 06:36:06;;;;;;;7.17;2.60;;;4.40;99.90;4.60;101175.00;;;;4953261;28;87944;-64
2021/10/25 06:38:37;;;;;;;3.33;2.13;;;4.60;99.90;4.90;101178.00;;;;4935201;28;88380;-65
2021/10/25 06:41:04;;;;;;;8.60;2.17;;;4.90;99.90;5.20;101173.00;;;;4946616;28;88915;-65
2021/10/25 06:43:29;;;;;;;4.73;1.93;;;5.20;99.90;5.40;101173.00;;;;4933617;28;89217;-64
2021/10/25 06:46:43;;;;;;;5.73;2.53;;;5.50;99.90;5.70;101175.00;;;;4963193;28;115378;-63
2021/10/25 06:49:14;;;;;;;4.63;2.13;;;5.70;99.90;6.00;101180.00;;;;4949060;28;87616;-63
2021/10/25 06:51:40;;;;;;;3.80;2.17;;;6.00;99.90;6.20;101167.00;;;;4934482;28;87737;-65
2021/10/25 06:54:06;;;;;;;2.60;1.73;;;6.20;99.90;6.40;101172.00;;;;4929962;28;117717;-65
2021/10/25 06:56:32;;;;;;;2.43;1.60;;;6.50;99.90;6.60;101172.00;;;;4934350;28;87636;-65
2021/10/25 06:58:58;;;;;;;4.73;2.50;;;6.70;99.90;6.90;101172.00;;;;4939550;28;87429;-65
2021/10/25 07:01:25;;;;;;;6.47;1.90;;;6.80;99.90;7.00;101168.00;;;;4936929;28;109856;-65
2021/10/25 07:03:52;;;;;;;2.30;1.67;;;7.10;99.90;7.20;101180.00;;;;4934048;28;88610;-65
2021/10/25 07:07:02;;;;;;;2.00;1.67;;;7.30;99.90;7.40;101186.00;;;;4941038;28;88882;-64
2021/10/25 07:09:29;;;;;;;2.27;1.23;;;7.50;99.90;7.60;101194.00;;;;4945564;28;88851;-65
2021/10/25 07:11:54;;;;;;;5.73;2.17;;;7.70;99.90;7.80;101183.00;;;;4941020;28;88084;-66
2021/10/25 07:14:28;;;;;;;2.50;2.00;;;7.80;99.90;8.00;101191.00;;;;4932181;28;115411;-66
2021/10/25 07:17:13;;;;;;;6.00;1.83;;;8.10;99.90;8.20;101179.00;;;;4948608;28;87545;-67
2021/10/25 07:19:54;;;;;;;1.97;1.77;;;8.20;99.90;8.40;101179.00;;;;4932335;28;88275;-65
2021/10/25 08:01:50;;;;;;;2.43;1.97;;;10.60;83.40;10.70;101188.00;;;;4958207;28;87371;-66
2021/10/25 08:05:12;;;;;;;1.93;1.63;;;10.70;80.30;10.80;101202.00;;;;4938995;28;88782;-65
2021/10/25 08:10:14;;;;;;;3.40;1.60;;;10.90;79.10;11.00;101200.00;;;;4931460;28;95017;-66
2021/10/25 08:12:46;;;;;;;6.77;2.40;;;11.00;80.30;11.10;101191.00;;;;4932801;28;87891;-68
2021/10/25 08:15:38;;;;;;;2.20;1.50;;;11.10;78.10;11.20;101188.00;;;;4936616;28;87906;-66
2021/10/25 08:18:08;;;;;;;3.70;1.33;;;11.20;76.00;11.20;101190.00;;;;4941995;28;87592;-66
2021/10/25 08:20:34;;;;;;;1.43;1.33;;;11.20;75.60;11.10;101182.00;;;;4934726;28;87777;-66
2021/10/25 08:23:00;;;;;;;1.73;1.40;;;11.20;74.20;11.00;101184.00;;;;4971263;28;88829;-65
2021/10/25 08:25:26;;;;;;;2.50;1.43;;;11.10;74.70;10.90;101190.00;;;;4943787;28;110061;-67
2021/10/25 08:27:52;;;;;;;3.47;1.77;;;10.90;74.40;10.70;101183.00;;;;4964589;28;87772;-67
2021/10/25 08:30:20;;;;;;;3.80;1.97;;;10.80;74.90;10.60;101184.00;;;;4935971;28;90887;-66
2021/10/25 08:33:03;;;;;;;3.03;2.13;;;10.70;75.80;10.50;101177.00;;;;4953631;28;88850;-65
2021/10/25 08:35:56;;;;;;;5.90;1.63;;;10.60;75.30;10.50;101184.00;;;;4931203;28;88205;-66
2021/10/25 08:41:06;;;;;;;2.60;1.53;;;10.60;76.40;10.70;101173.00;;;;4933357;28;87777;-66
2021/10/25 08:43:34;;;;;;;1.37;1.27;;;10.70;76.00;10.80;101181.00;;;;4938253;28;87975;-66
2021/10/25 08:46:20;;;;;;;2.00;1.57;;;10.80;75.60;10.90;101173.00;;;;4936701;28;87956;-65
2021/10/25 08:48:47;;;;;;;3.40;1.97;;;10.90;74.00;10.80;101175.00;;;;4929461;28;86918;-67
2021/10/25 08:52:12;;;;;;;5.53;1.87;;;10.90;74.30;10.90;101174.00;;;;4956611;28;88002;-66
2021/10/25 08:54:38;;;;;;;2.03;1.57;;;10.90;73.90;11.10;101183.00;;;;4952782;28;87672;-66
2021/10/25 08:57:04;;;;;;;3.60;1.67;;;11.00;73.30;11.20;101182.00;;;;4927986;28;88583;-67
2021/10/25 08:59:34;;;;;;;1.80;1.57;;;11.10;74.00;11.50;101182.00;;;;4936021;28;88076;-66
2021/10/25 09:02:18;;;;;;;2.03;1.50;;;11.10;72.50;11.60;101179.00;;;;4953505;28;88343;-66
2021/10/25 09:05:08;;;;;;;4.47;1.50;;;11.50;71.80;11.70;101179.00;;;;4939044;28;88162;-66
2021/10/25 09:07:49;;;;;;;7.50;2.00;;;11.60;70.30;11.60;101175.00;;;;4934379;28;87712;-66
2021/10/25 09:10:33;;;;;;;2.90;2.03;;;11.60;70.20;11.70;101173.00;;;;4938401;28;87836;-66
2021/10/25 09:13:22;;;;;;;2.93;1.83;;;11.70;70.00;11.80;101165.00;;;;4940713;28;88637;-66
2021/10/25 09:16:03;;;;;;;5.70;2.03;;;11.70;69.90;11.90;101166.00;;;;4940812;28;87655;-66
2021/10/25 09:18:32;;;;;;;2.83;1.77;;;11.80;69.00;12.00;101163.00;;;;4937875;28;87824;-66
2021/10/25 09:21:13;;;;;;;4.20;1.80;;;11.90;68.40;12.00;101156.00;;;;4937756;28;87821;-65
2021/10/25 09:23:46;;;;;;;2.93;1.77;;;11.90;67.80;12.10;101152.00;;;;4937350;28;89203;-66
2021/10/25 09:26:23;;;;;;;3.43;1.73;;;12.00;69.50;12.20;101153.00;;;;4938165;28;88859;-66
2021/10/25 09:28:56;;;;;;;3.70;1.70;;;12.20;68.00;12.30;101152.00;;;;4936460;28;87719;-66
2021/10/25 09:31:33;;;;;;;2.07;1.73;;;12.20;66.30;12.40;101163.00;;;;4939026;28;87629;-66
2021/10/25 09:34:12;;;;;;;2.17;1.53;;;12.30;66.20;12.40;101151.00;;;;4937471;28;88054;-65
2021/10/25 09:36:51;;;;;;;1.43;1.10;;;12.30;66.20;12.40;101170.00;;;;4938275;28;87732;-65
2021/10/25 09:39:25;;;;;;;5.70;2.03;;;12.40;65.40;12.40;101168.00;;;;4938124;28;87880;-66
2021/10/25 09:42:07;;;;;;;3.43;1.70;;;12.30;65.70;12.50;101161.00;;;;4938786;28;87269;-66
2021/10/25 09:50:06;;;;;;;6.40;2.43;;;12.80;63.40;13.20;101153.00;;;;4936669;28;88525;-65
2021/10/25 09:52:39;;;;;;;6.70;2.43;;;13.00;63.80;13.50;101162.00;;;;4941565;28;87794;-66
2021/10/25 09:55:10;;;;;;;3.70;2.40;;;13.30;63.90;13.90;101164.00;;;;4936818;28;92237;-65
2021/10/25 10:00:14;;;;;;;2.40;1.70;;;13.90;61.60;14.60;101156.00;;;;4938702;28;88224;-67
2021/10/25 10:02:42;;;;;;;3.43;2.00;;;14.30;60.90;14.80;101155.00;;;;4938946;28;87648;-65
2021/10/25 10:05:11;;;;;;;4.07;2.07;;;14.60;59.40;15.00;101152.00;;;;4936705;28;87876;-66
2021/10/25 10:07:37;;;;;;;2.60;2.03;;;14.70;58.90;15.10;101143.00;;;;4937257;28;88755;-66
2021/10/25 10:10:11;;;;;;;2.30;1.90;;;14.90;58.00;15.20;101159.00;;;;4950732;28;93720;-67
2021/10/25 10:12:40;;;;;;;5.20;1.67;;;15.00;57.10;15.30;101153.00;;;;4935992;28;87817;-66
2021/10/25 10:15:08;;;;;;;4.63;1.53;;;15.10;56.70;15.40;101142.00;;;;4936055;28;89924;-66
2021/10/25 10:17:43;;;;;;;4.73;1.63;;;15.20;56.30;15.40;101137.00;;;;4937396;28;89739;-66
2021/10/25 10:20:34;;;;;;;3.27;1.63;;;15.30;56.00;15.40;101142.00;;;;4936683;28;87841;-66
2021/10/25 10:23:06;;;;;;;1.83;1.50;;;15.30;56.00;15.20;101143.00;;;;4933555;28;87888;-66
2021/10/25 10:25:36;;;;;;;2.40;1.45;;;15.10;55.50;15.10;101147.00;;;;4934217;28;88511;-65
2021/10/25 10:28:13;;;;;;;6.10;1.55;;;15.00;56.30;15.20;101150.00;;;;4941181;28;88170;-65
2021/10/25 10:31:02;;;;;;;1.85;1.40;;;15.00;57.30;15.40;101145.00;;;;4934469;28;97340;-65
2021/10/25 10:33:54;;;;;;;2.42;1.30;;;15.20;57.60;15.80;101153.00;;;;4934541;28;96019;-65
2021/10/25 10:36:30;;;;;;;2.97;1.70;;;15.40;57.00;16.10;101144.00;;;;4948857;28;90082;-66
2021/10/25 10:39:15;;;;;;;3.15;1.40;;;15.70;56.60;16.50;101146.00;;;;4933546;28;88136;-70
2021/10/25 10:41:45;;;;;;;6.10;1.52;;;16.10;55.60;16.60;101148.00;;;;4934058;28;88796;-70
2021/10/25 10:44:18;;;;;;;1.60;1.50;;;16.30;53.30;16.60;101140.00;;;;4933762;28;87719;-70
2021/10/25 10:46:54;;;;;;;2.45;1.50;;;16.40;53.30;16.80;101137.00;;;;4933697;28;101483;-69
2021/10/25 10:49:37;;;;;;;1.23;1.13;;;16.50;53.60;16.90;101134.00;;;;4931936;28;87792;-69
2021/10/25 10:55:25;;;;;;;3.80;1.70;;;16.70;52.20;16.50;101138.00;;;;4898929;28;88199;-69
2021/10/25 11:00:39;;;;;;;1.40;1.17;;;16.10;52.10;15.90;101135.00;;;;4923275;28;87860;-70
2021/10/25 11:03:08;;;;;;;2.47;1.40;;;16.00;52.50;15.80;101139.00;;;;4933422;28;87711;-70
2021/10/25 11:05:38;;;;;;;2.00;1.45;;;15.70;53.00;15.70;101125.00;;;;4932583;28;99151;-70
2021/10/25 11:08:16;;;;;;;1.48;1.30;;;15.60;53.40;15.80;101131.00;;;;4931265;28;89154;-70
2021/10/25 11:10:47;;;;;;;1.85;1.52;;;15.60;53.90;16.00;101128.00;;;;4939133;28;91386;-70
2021/10/25 11:13:18;;;;;;;1.60;1.50;;;15.70;53.80;16.20;101132.00;;;;4933511;28;87748;-70
2021/10/25 11:16:06;;;;;;;2.17;1.40;;;15.90;53.50;16.30;101137.00;;;;4933993;28;87919;-70
2021/10/25 11:18:36;;;;;;;1.55;1.45;;;16.10;53.10;16.50;101128.00;;;;4932229;28;91397;-70
2021/10/25 11:21:12;;;;;;;2.10;1.88;;;16.20;53.60;16.50;101133.00;;;;4932943;28;87687;-69
2021/10/25 11:23:55;;;;;;;5.03;1.55;;;16.20;53.00;16.30;101123.00;;;;4932983;28;88119;-70
2021/10/25 11:26:30;;;;;;;1.25;1.15;;;16.10;52.20;16.00;101123.00;;;;4932354;28;87270;-69
2021/10/25 11:29:26;;;;;;;2.35;1.60;;;15.90;52.20;15.60;101123.00;;;;4932660;28;88733;-69
2021/10/25 11:31:56;;;;;;;2.50;1.55;;;15.60;53.20;15.20;101115.00;;;;4930947;28;87953;-69
2021/10/25 11:34:27;;;;;;;4.47;1.80;;;15.10;53.40;14.80;101120.00;;;;4930515;28;88719;-69
2021/10/25 11:36:58;;;;;;;2.33;1.50;;;14.80;53.90;14.60;101123.00;;;;4933386;28;87756;-67
2021/10/25 11:39:42;;;;;;;2.45;1.60;;;14.60;54.60;14.70;101124.00;;;;4932195;28;88979;-66
2021/10/25 11:42:15;;;;;;;10.90;1.98;;;14.60;55.70;14.90;101112.00;;;;4933375;28;87970;-70
2021/10/25 11:44:44;;;;;;;4.65;1.73;;;14.70;55.60;15.00;101112.00;;;;4932596;28;88087;-69
2021/10/25 11:47:38;;;;;;;1.73;1.63;;;14.80;55.60;15.00;101107.00;;;;4933468;28;87952;-69
2021/10/25 11:50:20;;;;;;;2.83;1.33;;;14.70;55.50;15.00;101113.00;;;;4930518;28;87916;-69
2021/10/25 11:52:59;;;;;;;2.97;1.42;;;14.80;55.40;15.10;101107.00;;;;4932261;28;87325;-69
2021/10/25 11:55:46;;;;;;;2.90;1.52;;;14.90;55.30;15.10;101092.00;;;;4926452;28;87908;-69
2021/10/25 11:58:14;;;;;;;2.33;1.50;;;15.00;55.10;15.20;101092.00;;;;4932924;28;88069;-69
2021/10/25 12:00:44;;;;;;;2.42;2.15;;;15.00;55.60;15.40;101094.00;;;;4931989;28;89505;-69
2021/10/25 12:03:20;;;;;;;3.08;1.60;;;15.10;55.70;15.70;101107.00;;;;4928745;28;88767;-69
2021/10/25 12:05:46;;;;;;;3.77;1.60;;;15.30;56.10;15.90;101096.00;;;;4947115;28;88074;-69
2021/10/25 12:08:17;;;;;;;2.63;1.55;;;15.60;55.80;16.10;101121.00;;;;4932656;28;88062;-70
2021/10/25 12:10:45;;;;;;;2.50;1.83;;;15.80;55.20;16.10;101108.00;;;;4932316;28;87965;-69
2021/10/25 12:13:11;;;;;;;1.83;1.73;;;15.80;54.50;16.10;101096.00;;;;4930593;28;103442;-69
2021/10/25 12:15:46;;;;;;;4.85;1.50;;;15.80;54.70;16.20;101083.00;;;;4931166;28;88072;-69
2021/10/25 12:18:19;;;;;;;2.90;1.65;;;15.90;54.50;16.30;101089.00;;;;4933088;28;87028;-70
2021/10/25 12:20:45;;;;;;;2.38;1.52;;;16.00;54.30;16.30;101087.00;;;;4935423;28;88140;-70
2021/10/25 12:23:20;;;;;;;4.18;1.42;;;16.10;54.10;16.40;101074.00;;;;4936487;28;88958;-70
2021/10/25 12:25:59;;;;;;;1.73;1.27;;;16.10;54.60;16.40;101062.00;;;;4936207;28;88749;-70
2021/10/25 12:28:26;;;;;;;3.97;1.45;;;16.20;53.50;16.30;101060.00;;;;4935612;28;87707;-71
2021/10/25 12:31:15;;;;;;;1.70;1.17;;;16.10;53.60;16.30;101048.00;;;;4935935;28;100729;-71
2021/10/25 12:33:44;;;;;;;1.77;1.30;;;16.10;54.00;16.30;101061.00;;;;4951291;28;89783;-70
2021/10/25 12:36:15;;;;;;;2.92;1.67;;;16.10;54.20;16.30;101052.00;;;;4937519;28;87669;-69
2021/10/25 12:38:44;;;;;;;4.40;2.10;;;16.10;54.30;16.40;101062.00;;;;4951301;28;87670;-69
2021/10/25 12:41:10;;;;;;;3.83;1.27;;;16.10;54.60;16.40;101044.00;;;;4937198;28;88217;-71
2021/10/25 12:43:49;;;;;;;1.88;1.52;;;16.20;54.60;16.60;101056.00;;;;4937234;28;87498;-70